| time (UTC) | temp C | wind direction | speed KPH | gust KPH | rain 1hr cm | rain 24hr cm | rain mn cm | humidity % | barometer mb |
| 20260504195518 | 13 | 298 | 1.6 | 4.8 | 0.00 | 0.18 | 0.00 | 42 | 1017.3 |
| 20260504194517 | 13 | 10 | 1.6 | 4.8 | 0.00 | 0.18 | 0.00 | 42 | 1017.1 |
| 20260504193519 | 13 | 14 | 1.6 | 4.8 | 0.00 | 0.20 | 0.00 | 42 | 1016.8 |
| 20260504192518 | 13 | 347 | 3.2 | 8.0 | 0.00 | 0.20 | 0.00 | 42 | 1016.5 |
| 20260504191517 | 13 | 345 | 3.2 | 6.4 | 0.00 | 0.20 | 0.00 | 43 | 1016.2 |
| 20260504190559 | 13 | 345 | 1.6 | 6.4 | 0.00 | 0.20 | 0.00 | 42 | 1016.0 |
| 20260504185517 | 13 | 2 | 1.6 | 9.7 | 0.00 | 0.20 | 0.00 | 42 | 1015.8 |
| 20260504184516 | 13 | 18 | 3.2 | 9.7 | 0.00 | 0.20 | 0.00 | 42 | 1015.6 |
| 20260504183519 | 13 | 308 | 3.2 | 11.3 | 0.00 | 0.20 | 0.00 | 43 | 1015.4 |
| 20260504182517 | 13 | 313 | 3.2 | 6.4 | 0.00 | 0.20 | 0.00 | 44 | 1015.4 |
| 20260504181517 | 13 | 3 | 1.6 | 6.4 | 0.00 | 0.20 | 0.00 | 44 | 1015.2 |
| 20260504180519 | 13 | 4 | 3.2 | 9.7 | 0.00 | 0.20 | 0.00 | 44 | 1015.0 |
| 20260504175518 | 13 | 338 | 3.2 | 9.7 | 0.00 | 0.20 | 0.00 | 44 | 1014.8 |
| 20260504174519 | 13 | 351 | 3.2 | 8.0 | 0.00 | 0.20 | 0.00 | 44 | 1014.4 |
| 20260504173517 | 13 | 348 | 3.2 | 6.4 | 0.00 | 0.20 | 0.00 | 43 | 1014.2 |
| 20260504172536 | 13 | 3 | 3.2 | 14.5 | 0.00 | 0.20 | 0.00 | 43 | 1013.9 |
| 20260504171538 | 13 | 358 | 3.2 | 8.0 | 0.00 | 0.20 | 0.00 | 43 | 1013.7 |
| 20260504170517 | 13 | 2 | 4.8 | 9.7 | 0.00 | 0.20 | 0.00 | 42 | 1013.6 |
| 20260504150516 | 15 | 352 | 3.2 | 14.5 | 0.00 | 0.20 | 0.00 | 40 | 1010.4 |
| 20260504140516 | 16 | 325 | 3.2 | 9.7 | 0.00 | 0.20 | 0.20 | 39 | 1008.9 |
| 20260504130516 | 17 | 2 | 3.2 | 11.3 | 0.00 | 0.28 | 0.20 | 41 | 1007.4 |
| 20260504110519 | 21 | 10 | 3.2 | 11.3 | 0.00 | 0.28 | 0.20 | 38 | 1003.6 |
| 20260504100518 | 22 | 355 | 3.2 | 8.0 | 0.00 | 0.28 | 0.20 | 36 | 1001.4 |
| 20260504081536 | 25 | 262 | 1.6 | 6.4 | 0.00 | 0.28 | 0.20 | 31 | 997.9 |
| 20260504080518 | 26 | 219 | 3.2 | 12.9 | 0.00 | 0.28 | 0.20 | 32 | 997.3 |
| 20260504050537 | 29 | 314 | 3.2 | 6.4 | 0.00 | 0.28 | 0.20 | 38 | 994.9 |
| 20260504045517 | 28 | 309 | 3.2 | 6.4 | 0.00 | 0.28 | 0.20 | 39 | 995.0 |
| 20260504044519 | 28 | 337 | 3.2 | 6.4 | 0.00 | 0.28 | 0.20 | 37 | 995.0 |
| 20260504043517 | 28 | 321 | 3.2 | 6.4 | 0.00 | 0.28 | 0.20 | 38 | 995.0 |
| 20260504042517 | 28 | 301 | 3.2 | 9.7 | 0.00 | 0.28 | 0.20 | 39 | 995.2 |
| 20260504041519 | 29 | 302 | 3.2 | 8.0 | 0.00 | 0.28 | 0.20 | 38 | 995.2 |
| 20260504040517 | 29 | 328 | 3.2 | 8.0 | 0.00 | 0.28 | 0.20 | 38 | 995.3 |
| 20260504035516 | 29 | 272 | 3.2 | 11.3 | 0.00 | 0.28 | 0.20 | 39 | 995.5 |
| 20260504034518 | 28 | 284 | 4.8 | 9.7 | 0.00 | 0.28 | 0.20 | 40 | 995.6 |
| 20260504033517 | 28 | 248 | 6.4 | 14.5 | 0.00 | 0.28 | 0.20 | 42 | 995.6 |
| 20260504032516 | 30 | 254 | 4.8 | 11.3 | 0.00 | 0.28 | 0.20 | 40 | 995.6 |
| 20260504031518 | 30 | 243 | 3.2 | 16.1 | 0.00 | 0.28 | 0.20 | 40 | 995.6 |
| 20260504030517 | 28 | 239 | 4.8 | 12.9 | 0.00 | 0.28 | 0.20 | 44 | 995.8 |
| 20260504025515 | 29 | 250 | 4.8 | 11.3 | 0.00 | 0.28 | 0.20 | 44 | 996.0 |
| 20260504024518 | 29 | 262 | 1.6 | 8.0 | 0.00 | 0.28 | 0.20 | 48 | 996.1 |
| 20260504023517 | 28 | 309 | 1.6 | 3.2 | 0.00 | 0.28 | 0.20 | 55 | 996.4 |
| 20260504022519 | 28 | 41 | 1.6 | 4.8 | 0.00 | 0.28 | 0.20 | 55 | 996.4 |
| 20260504021518 | 28 | 84 | 3.2 | 6.4 | 0.00 | 0.28 | 0.20 | 56 | 996.6 |
| 20260504020517 | 27 | 67 | 1.6 | 4.8 | 0.00 | 0.28 | 0.20 | 57 | 996.8 |
| 20260504015519 | 27 | 48 | 1.6 | 3.2 | 0.00 | 0.28 | 0.20 | 60 | 997.0 |
| 20260504014517 | 26 | 18 | 1.6 | 3.2 | 0.00 | 0.28 | 0.20 | 60 | 997.1 |
| 20260504013516 | 27 | 359 | 1.6 | 3.2 | 0.00 | 0.28 | 0.20 | 59 | 997.2 |
| 20260504012539 | 26 | 20 | 1.6 | 3.2 | 0.00 | 0.28 | 0.20 | 61 | 997.2 |
| 20260504011517 | 26 | 339 | 1.6 | 1.6 | 0.00 | 0.28 | 0.20 | 64 | 997.5 |
| 20260504010516 | 25 | 63 | 1.6 | 4.8 | 0.00 | 0.28 | 0.20 | 63 | 997.6 |
| 20260504005518 | 26 | 53 | 1.6 | 3.2 | 0.00 | 0.28 | 0.20 | 63 | 997.8 |
| 20260504004518 | 25 | 45 | 1.6 | 3.2 | 0.00 | 0.28 | 0.20 | 66 | 997.9 |
| 20260504003516 | 24 | 24 | 1.6 | 6.4 | 0.00 | 0.28 | 0.20 | 69 | 998.1 |
| 20260504002518 | 24 | 22 | 1.6 | 3.2 | 0.00 | 0.28 | 0.20 | 68 | 998.0 |
| 20260504001517 | 24 | 16 | 1.6 | 3.2 | 0.00 | 0.28 | 0.20 | 69 | 998.1 |
| 20260504000516 | 22 | 31 | 1.6 | 3.2 | 0.00 | 0.28 | 0.20 | 77 | 998.0 |
| 20260503235539 | 21 | 332 | 1.6 | 4.8 | 0.00 | 0.28 | 0.20 | 82 | 998.2 |
| 20260503234516 | 21 | 343 | 1.6 | 1.6 | 0.00 | 0.28 | 0.20 | 85 | 998.2 |
| 20260503233518 | 20 | 62 | 0.0 | 1.6 | 0.00 | 0.28 | 0.20 | 92 | 998.2 |
| 20260503232537 | 18 | 317 | 1.6 | 3.2 | 0.00 | 0.28 | 0.20 | 99 | 998.2 |
| 20260503231516 | 18 | 357 | 1.6 | 3.2 | 0.00 | 0.28 | 0.20 | 100 | 998.2 |
| 20260503230518 | 18 | 26 | 1.6 | 1.6 | 0.00 | 0.28 | 0.20 | 100 | 998.3 |
| 20260503225517 | 18 | 295 | 1.6 | 3.2 | 0.00 | 0.28 | 0.20 | 100 | 998.4 |
| 20260503224516 | 17 | 260 | 0.0 | 3.2 | 0.00 | 0.28 | 0.20 | 100 | 998.2 |
| 20260503223518 | 17 | 12 | 1.6 | 3.2 | 0.00 | 0.28 | 0.20 | 100 | 998.2 |
| 20260503222517 | 17 | 294 | 1.6 | 4.8 | 0.00 | 0.28 | 0.20 | 100 | 998.4 |
| 20260503221516 | 17 | 7 | 3.2 | 6.4 | 0.00 | 0.28 | 0.20 | 100 | 998.0 |
| 20260503220518 | 18 | 277 | 1.6 | 3.2 | 0.03 | 0.28 | 0.20 | 100 | 998.1 |
| 20260503215537 | 19 | 282 | 1.6 | 4.8 | 0.05 | 0.28 | 0.20 | 100 | 997.7 |
| 20260503214519 | 22 | 283 | 1.6 | 3.2 | 0.05 | 0.28 | 0.20 | 100 | 997.2 |
| 20260503213538 | 22 | 260 | 4.8 | 12.9 | 0.08 | 0.28 | 0.20 | 100 | 996.7 |
| 20260503212517 | 21 | 258 | 3.2 | 11.3 | 0.10 | 0.28 | 0.20 | 100 | 996.8 |
| 20260503211519 | 21 | 272 | 4.8 | 9.7 | 0.10 | 0.28 | 0.20 | 100 | 996.7 |
| 20260503210517 | 21 | 247 | 4.8 | 17.7 | 0.13 | 0.25 | 0.18 | 100 | 996.7 |
| 20260503205516 | 21 | 247 | 3.2 | 9.7 | 0.10 | 0.23 | 0.13 | 100 | 996.8 |
| 20260503204518 | 21 | 245 | 6.4 | 11.3 | 0.10 | 0.23 | 0.13 | 100 | 996.6 |
| 20260503203517 | 21 | 274 | 4.8 | 12.9 | 0.10 | 0.20 | 0.10 | 100 | 996.7 |
| 20260503202516 | 21 | 273 | 3.2 | 8.0 | 0.08 | 0.18 | 0.08 | 100 | 996.7 |
| 20260503201518 | 21 | 243 | 4.8 | 14.5 | 0.08 | 0.18 | 0.08 | 100 | 997.2 |
| 20260503200518 | 21 | 256 | 4.8 | 12.9 | 0.03 | 0.10 | 0.03 | 100 | 997.6 |